createdAt,value
2023-01-13T00:01:27.638Z,1.50
2023-01-13T00:03:54.173Z,1.43
2023-01-13T00:06:22.243Z,1.40
2023-01-13T00:08:49.840Z,1.30
2023-01-13T00:11:16.510Z,1.20
2023-01-13T00:13:43.121Z,0.90
2023-01-13T00:16:15.686Z,1.30
2023-01-13T00:18:42.330Z,0.90
2023-01-13T00:21:08.829Z,1.00
2023-01-13T00:23:35.762Z,0.90
2023-01-13T00:26:06.452Z,1.00
2023-01-13T00:28:32.881Z,0.90
2023-01-13T00:31:09.673Z,0.90
2023-01-13T00:33:36.436Z,1.43
2023-01-13T00:36:03.781Z,1.20
2023-01-13T00:38:31.251Z,1.00
2023-01-13T00:41:02.779Z,0.80
2023-01-13T00:43:30.191Z,0.80
2023-01-13T00:45:56.669Z,1.00
2023-01-13T00:48:23.971Z,1.10
2023-01-13T00:51:00.899Z,0.98
2023-01-13T00:53:27.837Z,0.80
2023-01-13T00:56:01.069Z,0.90
2023-01-13T00:58:28.075Z,1.00
2023-01-13T01:00:54.680Z,0.80
2023-01-13T01:03:21.255Z,0.73
2023-01-13T01:05:48.250Z,0.90
2023-01-13T01:08:14.799Z,1.00
2023-01-13T01:10:41.422Z,1.00
2023-01-13T01:13:07.939Z,0.70
2023-01-13T01:15:34.387Z,0.73
2023-01-13T01:18:00.815Z,0.80
2023-01-13T01:20:27.346Z,0.98
2023-01-13T01:22:53.892Z,1.00
2023-01-13T01:25:20.428Z,0.90
2023-01-13T01:27:46.883Z,1.05
2023-01-13T01:30:13.618Z,1.00
2023-01-13T01:32:40.022Z,1.10
2023-01-13T01:35:06.822Z,0.80
2023-01-13T01:37:33.436Z,0.98
2023-01-13T01:39:59.852Z,0.75
2023-01-13T01:42:45.225Z,0.90
2023-01-13T01:45:19.396Z,0.70
2023-01-13T01:47:47.810Z,0.85
2023-01-13T01:50:14.773Z,1.10
2023-01-13T01:52:43.519Z,0.70
2023-01-13T01:55:15.128Z,1.15
2023-01-13T01:57:44.626Z,0.65
2023-01-13T02:00:11.457Z,0.80
2023-01-13T02:02:37.999Z,0.90
2023-01-13T02:05:04.563Z,0.90
2023-01-13T02:07:32.336Z,1.20
2023-01-13T02:10:01.210Z,0.80
2023-01-13T02:12:31.860Z,0.80
2023-01-13T02:15:07.477Z,0.80
2023-01-13T02:17:43.197Z,0.83
2023-01-13T02:20:29.905Z,0.83
2023-01-13T02:23:35.208Z,0.90
2023-01-13T02:26:10.740Z,0.90
2023-01-13T02:29:12.830Z,1.10
2023-01-13T02:31:44.853Z,0.90
2023-01-13T02:34:17.609Z,1.00
2023-01-13T02:36:48.937Z,1.10
2023-01-13T02:42:06.924Z,1.00
2023-01-13T02:47:03.937Z,1.00
2023-01-13T02:49:38.501Z,1.08
2023-01-13T02:52:11.109Z,1.10
2023-01-13T02:54:39.351Z,0.90
2023-01-13T02:57:07.046Z,0.90
2023-01-13T02:59:33.972Z,1.00
2023-01-13T03:02:01.182Z,0.98
2023-01-13T03:04:42.998Z,1.20
2023-01-13T03:07:12.932Z,1.02
2023-01-13T03:09:52.921Z,1.02
2023-01-13T03:12:44.140Z,1.20
2023-01-13T03:15:13.661Z,1.25
2023-01-13T03:17:42.677Z,1.25
2023-01-13T03:20:15.214Z,1.20
2023-01-13T03:23:01.858Z,0.95
2023-01-13T03:25:29.933Z,1.10
2023-01-13T03:28:02.577Z,1.10
2023-01-13T03:30:33.455Z,0.95
2023-01-13T03:33:02.764Z,0.73
2023-01-13T03:35:31.181Z,1.08
2023-01-13T03:38:11.824Z,0.90
2023-01-13T03:40:44.547Z,0.82
2023-01-13T03:43:32.279Z,0.75
2023-01-13T03:46:02.562Z,0.70
2023-01-13T03:48:31.339Z,0.70
2023-01-13T03:51:04.200Z,0.70
2023-01-13T03:53:32.731Z,0.70
2023-01-13T03:56:01.639Z,0.85
2023-01-13T03:58:37.604Z,0.80
2023-01-13T04:01:13.064Z,0.70
2023-01-13T04:03:46.135Z,0.60
2023-01-13T04:06:32.881Z,0.80
2023-01-13T04:09:06.454Z,0.80
2023-01-13T04:11:35.882Z,0.70
2023-01-13T04:14:03.464Z,0.52
2023-01-13T04:16:29.987Z,0.85
2023-01-13T04:18:56.452Z,1.20
2023-01-13T04:21:22.883Z,1.00
2023-01-13T04:23:51.467Z,0.77
2023-01-13T04:26:19.689Z,3.50
2023-01-13T04:28:46.779Z,1.10
2023-01-13T04:31:13.308Z,1.58
2023-01-13T04:33:39.819Z,1.40
2023-01-13T04:36:06.420Z,1.60
2023-01-13T04:38:32.851Z,1.30
2023-01-13T04:40:59.320Z,0.85
2023-01-13T04:43:25.764Z,0.90
2023-01-13T04:45:52.281Z,1.20
2023-01-13T04:48:18.840Z,1.50
2023-01-13T04:50:45.351Z,1.35
2023-01-13T04:53:11.856Z,1.90
2023-01-13T04:55:38.641Z,1.27
2023-01-13T04:58:06.043Z,1.20
2023-01-13T05:00:32.711Z,1.20
2023-01-13T05:02:59.521Z,1.10
2023-01-13T05:05:26.467Z,1.00
2023-01-13T05:07:52.874Z,1.02
2023-01-13T05:10:19.448Z,1.42
2023-01-13T05:13:04.474Z,1.30
2023-01-13T05:15:49.827Z,1.77
2023-01-13T05:18:16.795Z,2.20
2023-01-13T05:20:43.274Z,2.17
2023-01-13T05:23:28.559Z,1.90
2023-01-13T05:25:54.963Z,1.70
2023-01-13T05:28:21.463Z,2.00
2023-01-13T05:30:49.506Z,1.50
2023-01-13T05:33:17.227Z,1.55
2023-01-13T05:35:44.786Z,1.58
2023-01-13T05:38:11.491Z,1.50
2023-01-13T05:40:59.325Z,1.83
2023-01-13T05:43:26.660Z,1.50
2023-01-13T05:46:00.738Z,1.50
2023-01-13T05:48:28.915Z,1.42
2023-01-13T05:50:55.620Z,1.35
2023-01-13T05:53:22.654Z,1.40
2023-01-13T05:55:49.394Z,1.58
2023-01-13T05:58:16.655Z,1.20
2023-01-13T06:00:43.295Z,1.60
2023-01-13T06:03:10.413Z,1.70
2023-01-13T06:05:37.133Z,1.50
2023-01-13T06:08:04.909Z,1.55
2023-01-13T06:10:31.680Z,1.50
2023-01-13T06:12:58.269Z,3.40
2023-01-13T06:15:25.103Z,1.48
2023-01-13T06:17:51.719Z,2.20
2023-01-13T06:20:18.716Z,2.10
2023-01-13T06:22:49.720Z,2.30
2023-01-13T06:25:23.666Z,2.42
2023-01-13T06:27:50.743Z,2.92
2023-01-13T06:30:17.543Z,13.68
2023-01-13T06:32:45.903Z,6.20
2023-01-13T06:35:14.089Z,2.75
2023-01-13T06:37:42.379Z,1.83
2023-01-13T06:40:10.152Z,1.50
2023-01-13T06:42:55.296Z,1.67
2023-01-13T06:45:22.468Z,4.88
2023-01-13T06:47:48.974Z,2.28
2023-01-13T06:50:17.332Z,5.43
2023-01-13T06:52:43.848Z,4.95
2023-01-13T06:55:10.288Z,3.20
2023-01-13T06:57:46.587Z,2.60
2023-01-13T07:00:13.425Z,2.63
2023-01-13T07:02:40.077Z,3.35
2023-01-13T07:05:06.640Z,2.80
2023-01-13T07:07:33.597Z,2.80
2023-01-13T07:10:00.514Z,2.67
2023-01-13T07:12:27.028Z,2.97
2023-01-13T07:15:12.245Z,1.90
2023-01-13T07:17:38.696Z,2.03
2023-01-13T07:20:05.523Z,1.67
2023-01-13T07:22:32.017Z,2.25
2023-01-13T07:24:58.540Z,1.80
2023-01-13T07:27:24.948Z,2.20
2023-01-13T07:29:51.340Z,2.05
2023-01-13T07:32:17.755Z,2.10
2023-01-13T07:34:44.278Z,1.60
2023-01-13T07:37:10.786Z,1.67
2023-01-13T07:39:37.183Z,1.65
2023-01-13T07:42:22.377Z,2.40
2023-01-13T07:44:48.843Z,2.70
2023-01-13T07:47:15.418Z,2.60
2023-01-13T07:49:41.895Z,2.30
2023-01-13T07:52:08.931Z,2.15
2023-01-13T07:54:41.020Z,1.77
2023-01-13T07:57:08.110Z,1.90
2023-01-13T07:59:34.749Z,2.03
2023-01-13T08:02:01.426Z,2.17
2023-01-13T08:04:27.997Z,2.90
2023-01-13T08:06:54.561Z,2.90
2023-01-13T08:09:21.059Z,1.88
2023-01-13T08:12:07.461Z,1.95
2023-01-13T08:14:34.057Z,2.10
2023-01-13T08:17:00.576Z,1.73
2023-01-13T08:19:27.045Z,2.08
2023-01-13T08:21:53.616Z,2.25
2023-01-13T08:24:20.069Z,1.83
2023-01-13T08:26:46.523Z,1.75
2023-01-13T08:29:14.855Z,1.90
2023-01-13T08:31:41.780Z,2.05
2023-01-13T08:34:08.223Z,2.10
2023-01-13T08:36:34.745Z,2.55
2023-01-13T08:39:01.592Z,1.90
2023-01-13T08:41:46.629Z,2.00
2023-01-13T08:44:13.139Z,2.30
2023-01-13T08:46:39.664Z,2.10
2023-01-13T08:49:06.064Z,2.30
2023-01-13T08:51:32.516Z,2.20
2023-01-13T08:53:58.924Z,1.85
2023-01-13T08:56:25.357Z,2.40
2023-01-13T08:58:51.801Z,2.08
2023-01-13T09:01:21.306Z,2.47
2023-01-13T09:03:47.889Z,2.40
2023-01-13T09:06:14.531Z,2.30
2023-01-13T09:08:41.082Z,2.20
2023-01-13T09:11:28.544Z,2.00
2023-01-13T09:13:55.044Z,2.40
2023-01-13T09:16:21.627Z,2.25
2023-01-13T09:18:48.048Z,2.10
2023-01-13T09:21:14.718Z,2.10
2023-01-13T09:23:41.147Z,2.08
2023-01-13T09:26:08.737Z,2.08
2023-01-13T09:28:35.227Z,1.85
2023-01-13T09:31:01.875Z,2.20
2023-01-13T09:33:47.192Z,1.70
2023-01-13T09:36:13.638Z,1.80
2023-01-13T09:38:40.151Z,2.10
2023-01-13T09:41:26.730Z,2.10
2023-01-13T09:43:56.892Z,1.97
2023-01-13T09:46:43.997Z,1.47
2023-01-13T09:49:15.849Z,2.10
2023-01-13T09:51:50.039Z,3.85
2023-01-13T09:54:21.895Z,3.05
2023-01-13T09:56:48.559Z,2.25
2023-01-13T09:59:16.181Z,2.10
2023-01-13T10:02:11.843Z,3.90
2023-01-13T10:04:38.439Z,2.50
2023-01-13T10:07:05.891Z,3.50
2023-01-13T10:09:49.589Z,3.08
2023-01-13T10:12:45.174Z,2.95
2023-01-13T10:15:16.793Z,2.20
2023-01-13T10:17:49.372Z,2.20
2023-01-13T10:20:33.836Z,1.90
2023-01-13T10:23:10.328Z,2.28
2023-01-13T10:25:36.837Z,2.50
2023-01-13T10:28:10.814Z,2.15
2023-01-13T10:30:40.262Z,2.47
2023-01-13T10:33:14.958Z,2.55
2023-01-13T10:35:56.840Z,2.50
2023-01-13T10:38:25.310Z,2.20
2023-01-13T10:40:53.739Z,2.78
2023-01-13T10:43:20.598Z,2.63
2023-01-13T10:45:59.391Z,2.00
2023-01-13T10:48:33.120Z,1.75
2023-01-13T10:51:09.491Z,2.03
2023-01-13T10:53:44.355Z,1.80
2023-01-13T10:56:15.732Z,1.98
2023-01-13T11:01:14.812Z,1.95
2023-01-13T11:03:42.975Z,0.60
2023-01-13T11:06:09.943Z,0.40
2023-01-13T11:08:43.002Z,0.50
2023-01-13T11:11:25.638Z,1.05
2023-01-13T11:14:12.553Z,0.70
2023-01-13T11:16:47.368Z,0.73
2023-01-13T11:19:20.758Z,0.65
2023-01-13T11:21:50.099Z,0.68
2023-01-13T11:24:19.560Z,0.80
2023-01-13T11:27:18.191Z,0.65
2023-01-13T11:30:03.203Z,0.47
2023-01-13T11:32:33.487Z,0.32
2023-01-13T11:35:09.941Z,0.40
2023-01-13T11:37:40.582Z,0.45
2023-01-13T11:40:16.481Z,0.60
2023-01-13T11:42:46.007Z,0.50
2023-01-13T11:45:17.003Z,0.60
2023-01-13T11:47:45.255Z,0.60
2023-01-13T11:50:34.527Z,0.60
2023-01-13T11:53:15.438Z,0.60
2023-01-13T11:55:53.927Z,0.65
2023-01-13T11:58:33.783Z,0.40
2023-01-13T12:01:23.283Z,0.40
2023-01-13T12:03:53.029Z,0.43
2023-01-13T12:06:39.263Z,0.40
2023-01-13T12:09:22.220Z,0.28
2023-01-13T12:12:19.339Z,0.30
2023-01-13T12:14:53.510Z,0.40
2023-01-13T12:17:28.863Z,0.45
2023-01-13T12:19:55.345Z,0.38
2023-01-13T12:22:25.275Z,0.50
2023-01-13T12:24:57.705Z,0.50
2023-01-13T12:27:26.892Z,0.50
2023-01-13T12:29:57.040Z,0.40
2023-01-13T12:32:27.283Z,0.40
2023-01-13T12:34:53.960Z,0.25
2023-01-13T12:37:20.360Z,0.40
2023-01-13T12:40:14.122Z,0.30
2023-01-13T12:43:21.526Z,0.43
2023-01-13T12:45:48.158Z,0.40
2023-01-13T12:48:33.326Z,0.50
2023-01-13T12:51:02.442Z,0.40
2023-01-13T12:53:30.732Z,0.52
2023-01-13T12:56:20.699Z,0.55
2023-01-13T12:58:47.244Z,0.40
2023-01-13T13:01:14.522Z,0.60
2023-01-13T13:03:41.530Z,0.70
2023-01-13T13:06:17.704Z,0.70
2023-01-13T13:08:44.099Z,0.80
2023-01-13T13:11:32.058Z,0.70
2023-01-13T13:14:01.927Z,0.88
2023-01-13T13:16:29.502Z,1.00
2023-01-13T13:19:14.632Z,0.70
2023-01-13T13:21:59.751Z,0.60
2023-01-13T13:24:26.504Z,0.63
2023-01-13T13:26:52.945Z,0.52
2023-01-13T13:29:26.956Z,0.45
2023-01-13T13:31:59.207Z,0.50
2023-01-13T13:34:29.587Z,0.60
2023-01-13T13:37:07.390Z,0.60
2023-01-13T13:39:52.813Z,0.50
2023-01-13T13:42:55.504Z,0.55
2023-01-13T13:45:42.515Z,0.60
2023-01-13T13:48:21.295Z,0.50
2023-01-13T13:50:54.931Z,0.70
2023-01-13T13:53:22.100Z,0.55
2023-01-13T13:55:55.637Z,0.63
2023-01-13T13:58:22.906Z,0.70
2023-01-13T14:00:49.649Z,0.63
2023-01-13T14:03:24.956Z,0.70
2023-01-13T14:05:54.420Z,0.98
2023-01-13T14:08:21.027Z,0.75
2023-01-13T14:10:47.506Z,0.52
2023-01-13T14:13:15.191Z,0.75
2023-01-13T14:15:41.828Z,0.90
2023-01-13T14:18:13.450Z,0.95
2023-01-13T14:20:40.655Z,0.60
2023-01-13T14:23:07.571Z,0.70
2023-01-13T14:25:37.154Z,0.80
2023-01-13T14:28:08.479Z,1.30
2023-01-13T14:30:35.055Z,1.00
2023-01-13T14:33:01.918Z,2.63
2023-01-13T14:35:29.375Z,0.68
2023-01-13T14:38:01.273Z,2.00
2023-01-13T14:40:36.127Z,1.13
2023-01-13T14:43:03.666Z,1.02
2023-01-13T14:45:33.083Z,0.70
2023-01-13T14:48:01.078Z,0.85
2023-01-13T14:50:31.526Z,2.05
2023-01-13T14:53:00.418Z,0.90
2023-01-13T14:55:31.720Z,1.00
2023-01-13T15:00:25.737Z,2.50
2023-01-13T15:02:58.141Z,1.20
2023-01-13T15:05:29.383Z,0.77
2023-01-13T15:07:59.329Z,1.17
2023-01-13T15:10:30.789Z,0.85
2023-01-13T15:12:58.392Z,1.13
2023-01-13T15:15:27.493Z,1.02
2023-01-13T15:17:54.383Z,0.90
2023-01-13T15:20:21.684Z,1.17
2023-01-13T15:22:48.364Z,1.15
2023-01-13T15:25:15.027Z,1.05
2023-01-13T15:27:45.178Z,0.90
2023-01-13T15:30:14.880Z,0.82
2023-01-13T15:32:41.708Z,0.88
2023-01-13T15:35:09.479Z,0.65
2023-01-13T15:37:36.103Z,0.90
2023-01-13T15:40:02.665Z,0.75
2023-01-13T15:42:48.821Z,0.88
2023-01-13T15:45:34.004Z,0.60
2023-01-13T15:48:00.601Z,0.77
2023-01-13T15:50:28.790Z,0.50
2023-01-13T15:52:55.251Z,0.60
2023-01-13T15:55:21.680Z,0.50
2023-01-13T15:57:49.660Z,0.60
2023-01-13T16:00:20.234Z,0.60
2023-01-13T16:02:46.710Z,0.50
2023-01-13T16:05:13.225Z,0.63
2023-01-13T16:07:39.690Z,0.60
2023-01-13T16:10:08.446Z,0.63
2023-01-13T16:12:34.885Z,0.70
2023-01-13T16:15:01.293Z,0.70
2023-01-13T16:17:30.016Z,0.60
2023-01-13T16:19:56.669Z,0.50
2023-01-13T16:22:23.195Z,0.70
2023-01-13T16:24:49.831Z,0.60
2023-01-13T16:27:20.353Z,0.47
2023-01-13T16:29:47.452Z,0.50
2023-01-13T16:32:14.139Z,0.57
2023-01-13T16:34:40.884Z,0.55
2023-01-13T16:37:23.971Z,0.63
2023-01-13T16:39:50.935Z,0.50
2023-01-13T16:42:17.594Z,0.55
2023-01-13T16:44:44.198Z,0.47
2023-01-13T16:47:14.479Z,0.70
2023-01-13T16:49:40.965Z,0.77
2023-01-13T16:52:07.452Z,0.70
2023-01-13T16:54:34.109Z,0.70
2023-01-13T16:57:00.561Z,0.70
2023-01-13T16:59:27.070Z,0.70
2023-01-13T17:01:53.661Z,0.65
2023-01-13T17:04:23.580Z,0.70
2023-01-13T17:07:00.728Z,0.68
2023-01-13T17:09:28.624Z,0.47
2023-01-13T17:11:55.559Z,1.15
2023-01-13T17:14:23.502Z,0.80
2023-01-13T17:16:51.560Z,0.65
2023-01-13T17:19:18.939Z,0.65
2023-01-13T17:21:47.021Z,0.70
2023-01-13T17:24:14.131Z,0.70
2023-01-13T17:26:47.211Z,0.70
2023-01-13T17:29:14.951Z,0.80
2023-01-13T17:31:41.507Z,0.70
2023-01-13T17:34:07.970Z,0.82
2023-01-13T17:36:34.423Z,0.82
2023-01-13T17:39:00.925Z,0.90
2023-01-13T17:41:27.468Z,1.10
2023-01-13T17:43:53.888Z,1.40
2023-01-13T17:46:22.450Z,0.80
2023-01-13T17:48:49.645Z,0.90
2023-01-13T17:51:20.533Z,0.90
2023-01-13T17:53:47.090Z,0.90
2023-01-13T17:56:14.463Z,1.60
2023-01-13T17:58:41.555Z,1.20
2023-01-13T18:01:09.556Z,1.10
2023-01-13T18:03:36.208Z,0.73
2023-01-13T18:06:12.001Z,1.88
2023-01-13T18:08:38.465Z,1.02
2023-01-13T18:11:04.943Z,1.05
2023-01-13T18:13:33.248Z,0.77
2023-01-13T18:16:06.126Z,0.70
2023-01-13T18:18:34.329Z,0.70
2023-01-13T18:21:19.506Z,0.80
2023-01-13T18:24:04.734Z,0.70
2023-01-13T18:26:49.977Z,0.70
2023-01-13T18:29:16.470Z,0.38
2023-01-13T18:31:42.970Z,0.75
2023-01-13T18:34:09.352Z,0.60
2023-01-13T18:36:36.442Z,0.70
2023-01-13T18:39:03.476Z,0.80
2023-01-13T18:41:48.729Z,0.70
2023-01-13T18:44:15.298Z,0.60
2023-01-13T18:46:41.800Z,0.80
2023-01-13T18:49:08.273Z,0.70
2023-01-13T18:51:34.758Z,0.77
2023-01-13T18:54:01.134Z,0.60
2023-01-13T18:56:27.633Z,0.80
2023-01-13T18:58:54.252Z,0.73
2023-01-13T19:01:22.840Z,0.90
2023-01-13T19:03:59.646Z,0.88
2023-01-13T19:06:27.336Z,1.30
2023-01-13T19:08:55.750Z,0.82
2023-01-13T19:11:23.016Z,1.00
2023-01-13T19:13:50.329Z,0.90
2023-01-13T19:16:17.256Z,0.90
2023-01-13T19:18:43.751Z,0.93
2023-01-13T19:21:10.279Z,0.80
2023-01-13T19:23:36.861Z,1.40
2023-01-13T19:26:05.027Z,0.75
2023-01-13T19:28:31.556Z,1.00
2023-01-13T19:31:01.743Z,1.00
2023-01-13T19:33:29.536Z,1.17
2023-01-13T19:35:56.177Z,1.05
2023-01-13T19:38:23.557Z,1.00
2023-01-13T19:41:00.730Z,1.08
2023-01-13T19:43:45.846Z,1.17
2023-01-13T19:46:13.168Z,0.90
2023-01-13T19:48:40.404Z,0.95
2023-01-13T19:51:07.232Z,0.80
2023-01-13T19:53:33.688Z,0.68
2023-01-13T19:56:00.244Z,0.70
2023-01-13T19:58:26.869Z,0.80
2023-01-13T20:00:53.881Z,0.70
2023-01-13T20:03:24.173Z,0.90
2023-01-13T20:05:54.098Z,0.77
2023-01-13T20:08:21.653Z,0.87
2023-01-13T20:10:48.799Z,0.60
2023-01-13T20:13:16.251Z,0.80
2023-01-13T20:15:43.474Z,0.90
2023-01-13T20:18:09.930Z,0.95
2023-01-13T20:20:37.133Z,1.90
2023-01-13T20:23:03.580Z,2.03
2023-01-13T20:25:30.162Z,1.70
2023-01-13T20:27:56.863Z,1.30
2023-01-13T20:30:23.453Z,1.20
2023-01-13T20:32:50.023Z,1.00
2023-01-13T20:35:17.129Z,1.50
2023-01-13T20:37:43.906Z,2.10
2023-01-13T20:40:12.904Z,2.17
2023-01-13T20:42:44.663Z,1.90
2023-01-13T20:45:15.285Z,1.20
2023-01-13T20:47:41.698Z,1.15
2023-01-13T20:50:08.330Z,1.00
2023-01-13T20:52:34.772Z,1.60
2023-01-13T20:55:01.196Z,1.20
2023-01-13T20:57:27.702Z,2.47
2023-01-13T20:59:54.195Z,1.90
2023-01-13T21:02:22.623Z,3.57
2023-01-13T21:04:49.078Z,3.10
2023-01-13T21:07:15.477Z,2.03
2023-01-13T21:09:41.956Z,1.00
2023-01-13T21:12:27.312Z,1.30
2023-01-13T21:15:12.404Z,1.20
2023-01-13T21:17:57.256Z,1.30
2023-01-13T21:20:23.778Z,1.57
2023-01-13T21:22:50.317Z,1.80
2023-01-13T21:25:17.574Z,1.10
2023-01-13T21:27:44.305Z,1.73
2023-01-13T21:30:14.864Z,1.47
2023-01-13T21:32:41.932Z,1.70
2023-01-13T21:35:08.639Z,2.93
2023-01-13T21:37:36.361Z,1.87
2023-01-13T21:40:03.652Z,1.20
2023-01-13T21:42:48.489Z,1.67
2023-01-13T21:45:33.562Z,1.50
2023-01-13T21:48:00.127Z,1.13
2023-01-13T21:50:28.102Z,1.17
2023-01-13T21:52:55.039Z,1.20
2023-01-13T21:55:28.610Z,1.27
2023-01-13T21:58:11.844Z,1.10
2023-01-13T22:00:39.098Z,1.30
2023-01-13T22:03:06.360Z,1.38
2023-01-13T22:05:32.861Z,1.13
2023-01-13T22:07:59.282Z,1.42
2023-01-13T22:10:26.724Z,1.02
2023-01-13T22:12:54.067Z,1.10
2023-01-13T22:15:20.735Z,1.30
2023-01-13T22:17:49.900Z,1.15
2023-01-13T22:20:17.063Z,1.58
2023-01-13T22:22:43.715Z,1.35
2023-01-13T22:25:11.435Z,1.33
2023-01-13T22:27:42.374Z,1.33
2023-01-13T22:30:11.339Z,1.58
2023-01-13T22:32:38.625Z,1.27
2023-01-13T22:35:06.207Z,1.13
2023-01-13T22:37:32.785Z,1.30
2023-01-13T22:39:59.205Z,1.70
2023-01-13T22:42:25.650Z,1.13
2023-01-13T22:44:52.064Z,1.33
2023-01-13T22:47:18.690Z,1.50
2023-01-13T22:49:47.777Z,2.63
2023-01-13T22:52:15.099Z,2.58
2023-01-13T22:54:41.527Z,2.00
2023-01-13T22:57:08.003Z,1.60
2023-01-13T22:59:34.455Z,1.50
2023-01-13T23:02:00.929Z,1.17
2023-01-13T23:04:27.463Z,1.23
2023-01-13T23:06:53.940Z,1.27
2023-01-13T23:09:20.698Z,1.20
2023-01-13T23:11:47.935Z,1.13
2023-01-13T23:14:14.449Z,1.23
2023-01-13T23:16:41.207Z,1.30
2023-01-13T23:19:07.995Z,1.30
2023-01-13T23:21:36.183Z,1.30
2023-01-13T23:24:03.724Z,1.38
2023-01-13T23:26:30.622Z,1.58
2023-01-13T23:29:01.380Z,1.17
2023-01-13T23:31:27.863Z,1.50
2023-01-13T23:33:54.344Z,1.20
2023-01-13T23:36:21.883Z,1.25
2023-01-13T23:38:48.452Z,1.10
2023-01-13T23:41:15.987Z,1.50
2023-01-13T23:43:42.430Z,1.42
2023-01-13T23:46:10.623Z,1.60
2023-01-13T23:48:37.164Z,1.27
2023-01-13T23:51:05.065Z,1.20
2023-01-13T23:53:33.597Z,1.30
2023-01-13T23:56:00.871Z,1.40
2023-01-13T23:58:27.883Z,1.50
